AUTO METAR SSNG 110310Z 00000KT FEW013 24/20 Q1011